PMH weather

Greater Portsmouth Regional Airport
Portsmouth, Ohio, United States

Public forecast

Using degrees Fahrenheit for public forecast. Weather courtesy of forecast.io.

METAR (pilot weather report)

Closest report is Ashland Regional Airport, 17.9 nm (33.2 km) SSE. Retrieved 2019/05/22 13:56 UTC (28 minutes ago):

KDWU 221356Z AUTO 11004KT 10SM CLR 19/14 A3007 RMK AO2 SLP181 T01890144

TAF (pilot weather forecast)

Closest forecast is Tri-State/Milton J. Ferguson Field, 31.5 nm (58.4 km) SSE. Retrieved 2019/05/22 12:22 UTC (2 hours ago):

TAF KHTS 221120Z 2212/2312 15005KT P6SM SCT250 FM221500 18007KT P6SM SCT250 FM222000 21007KT P6SM SCT060 FM230200 19004KT P6SM SCT080